sensor_id;sensor_type;location;lat;lon;timestamp;temperature;humidity
60039;DHT22;45916;52.734;6.544;2022-08-01T00:00:24;18.90;99.90
60039;DHT22;45916;52.734;6.544;2022-08-01T00:02:50;18.90;99.90
60039;DHT22;45916;52.734;6.544;2022-08-01T00:05:16;18.80;99.90
60039;DHT22;45916;52.734;6.544;2022-08-01T00:07:42;18.80;99.90
60039;DHT22;45916;52.734;6.544;2022-08-01T00:10:10;18.80;99.90
60039;DHT22;45916;52.734;6.544;2022-08-01T00:12:37;18.80;99.90
60039;DHT22;45916;52.734;6.544;2022-08-01T00:15:04;18.80;99.90
60039;DHT22;45916;52.734;6.544;2022-08-01T00:17:31;18.80;99.90
60039;DHT22;45916;52.734;6.544;2022-08-01T00:19:57;18.80;99.90
60039;DHT22;45916;52.734;6.544;2022-08-01T00:22:23;18.80;99.90
60039;DHT22;45916;52.734;6.544;2022-08-01T00:24:48;18.80;99.90
60039;DHT22;45916;52.734;6.544;2022-08-01T00:27:14;18.80;99.90
60039;DHT22;45916;52.734;6.544;2022-08-01T00:29:40;18.70;99.90
60039;DHT22;45916;52.734;6.544;2022-08-01T00:32:06;18.70;99.90
60039;DHT22;45916;52.734;6.544;2022-08-01T00:34:31;18.80;99.90
60039;DHT22;45916;52.734;6.544;2022-08-01T00:36:57;18.80;99.90
60039;DHT22;45916;52.734;6.544;2022-08-01T00:39:22;18.80;99.90
60039;DHT22;45916;52.734;6.544;2022-08-01T00:41:48;18.80;99.90
60039;DHT22;45916;52.734;6.544;2022-08-01T00:44:14;18.80;99.90
60039;DHT22;45916;52.734;6.544;2022-08-01T00:46:40;18.80;99.90
60039;DHT22;45916;52.734;6.544;2022-08-01T00:49:06;18.80;99.90
60039;DHT22;45916;52.734;6.544;2022-08-01T00:51:33;18.70;99.90
60039;DHT22;45916;52.734;6.544;2022-08-01T00:53:59;18.70;99.90
60039;DHT22;45916;52.734;6.544;2022-08-01T00:56:27;18.70;99.90
60039;DHT22;45916;52.734;6.544;2022-08-01T00:58:54;18.70;99.90
60039;DHT22;45916;52.734;6.544;2022-08-01T01:01:20;18.70;99.90
60039;DHT22;45916;52.734;6.544;2022-08-01T01:03:48;18.70;99.90
60039;DHT22;45916;52.734;6.544;2022-08-01T01:10:00;18.60;99.90
60039;DHT22;45916;52.734;6.544;2022-08-01T01:12:29;18.70;99.90
60039;DHT22;45916;52.734;6.544;2022-08-01T01:15:05;18.60;99.90
60039;DHT22;45916;52.734;6.544;2022-08-01T01:17:39;18.60;99.90
60039;DHT22;45916;52.734;6.544;2022-08-01T01:20:08;18.60;99.90
60039;DHT22;45916;52.734;6.544;2022-08-01T01:28:11;18.60;99.90
60039;DHT22;45916;52.734;6.544;2022-08-01T01:30:43;18.60;99.90
60039;DHT22;45916;52.734;6.544;2022-08-01T01:33:11;18.50;99.90
60039;DHT22;45916;52.734;6.544;2022-08-01T01:35:39;18.50;99.90
60039;DHT22;45916;52.734;6.544;2022-08-01T01:38:25;18.50;99.90
60039;DHT22;45916;52.734;6.544;2022-08-01T01:40:52;18.40;99.90
60039;DHT22;45916;52.734;6.544;2022-08-01T01:43:19;18.40;99.90
60039;DHT22;45916;52.734;6.544;2022-08-01T01:45:47;18.40;99.90
60039;DHT22;45916;52.734;6.544;2022-08-01T01:48:15;18.40;99.90
60039;DHT22;45916;52.734;6.544;2022-08-01T01:50:45;18.40;99.90
60039;DHT22;45916;52.734;6.544;2022-08-01T01:53:13;18.40;99.90
60039;DHT22;45916;52.734;6.544;2022-08-01T01:55:41;18.40;99.90
60039;DHT22;45916;52.734;6.544;2022-08-01T01:58:12;18.40;99.90
60039;DHT22;45916;52.734;6.544;2022-08-01T02:00:40;18.40;99.90
60039;DHT22;45916;52.734;6.544;2022-08-01T02:03:07;18.40;99.90
60039;DHT22;45916;52.734;6.544;2022-08-01T02:05:35;18.40;99.90
60039;DHT22;45916;52.734;6.544;2022-08-01T02:08:02;18.40;99.90
60039;DHT22;45916;52.734;6.544;2022-08-01T02:10:31;18.40;99.90
60039;DHT22;45916;52.734;6.544;2022-08-01T02:13:02;18.40;99.90
60039;DHT22;45916;52.734;6.544;2022-08-01T02:15:31;18.40;99.90
60039;DHT22;45916;52.734;6.544;2022-08-01T02:17:57;18.40;99.90
60039;DHT22;45916;52.734;6.544;2022-08-01T02:20:25;18.40;99.90
60039;DHT22;45916;52.734;6.544;2022-08-01T02:22:56;18.40;99.90
60039;DHT22;45916;52.734;6.544;2022-08-01T02:25:27;18.40;99.90
60039;DHT22;45916;52.734;6.544;2022-08-01T02:28:04;18.40;99.90
60039;DHT22;45916;52.734;6.544;2022-08-01T02:30:39;18.40;99.90
60039;DHT22;45916;52.734;6.544;2022-08-01T02:33:27;18.30;99.90
60039;DHT22;45916;52.734;6.544;2022-08-01T02:35:58;18.30;99.90
60039;DHT22;45916;52.734;6.544;2022-08-01T02:38:26;18.30;99.90
60039;DHT22;45916;52.734;6.544;2022-08-01T02:40:52;18.30;99.90
60039;DHT22;45916;52.734;6.544;2022-08-01T02:43:21;18.20;99.90
60039;DHT22;45916;52.734;6.544;2022-08-01T02:45:56;18.20;99.90
60039;DHT22;45916;52.734;6.544;2022-08-01T02:48:24;18.20;99.90
60039;DHT22;45916;52.734;6.544;2022-08-01T02:50:54;18.20;99.90
60039;DHT22;45916;52.734;6.544;2022-08-01T02:53:22;18.20;99.90
60039;DHT22;45916;52.734;6.544;2022-08-01T02:55:48;18.20;99.90
60039;DHT22;45916;52.734;6.544;2022-08-01T02:58:16;18.20;99.90
60039;DHT22;45916;52.734;6.544;2022-08-01T03:00:43;18.20;99.90
60039;DHT22;45916;52.734;6.544;2022-08-01T03:03:10;18.20;99.90
60039;DHT22;45916;52.734;6.544;2022-08-01T03:05:37;18.20;99.90
60039;DHT22;45916;52.734;6.544;2022-08-01T03:08:06;18.20;99.90
60039;DHT22;45916;52.734;6.544;2022-08-01T03:10:35;18.10;99.90
60039;DHT22;45916;52.734;6.544;2022-08-01T03:13:02;18.10;99.90
60039;DHT22;45916;52.734;6.544;2022-08-01T03:15:31;18.20;99.90
60039;DHT22;45916;52.734;6.544;2022-08-01T03:17:59;18.20;99.90
60039;DHT22;45916;52.734;6.544;2022-08-01T03:20:27;18.20;99.90
60039;DHT22;45916;52.734;6.544;2022-08-01T03:22:56;18.20;99.90
60039;DHT22;45916;52.734;6.544;2022-08-01T03:25:23;18.20;99.90
60039;DHT22;45916;52.734;6.544;2022-08-01T03:27:54;18.10;99.90
60039;DHT22;45916;52.734;6.544;2022-08-01T03:30:22;18.10;99.90
60039;DHT22;45916;52.734;6.544;2022-08-01T03:32:48;18.10;99.90
60039;DHT22;45916;52.734;6.544;2022-08-01T03:35:14;18.10;99.90
60039;DHT22;45916;52.734;6.544;2022-08-01T03:37:46;18.10;99.90
60039;DHT22;45916;52.734;6.544;2022-08-01T03:40:22;18.10;99.90
60039;DHT22;45916;52.734;6.544;2022-08-01T03:42:52;18.00;99.90
60039;DHT22;45916;52.734;6.544;2022-08-01T03:45:22;18.00;99.90
60039;DHT22;45916;52.734;6.544;2022-08-01T03:47:54;18.00;99.90
60039;DHT22;45916;52.734;6.544;2022-08-01T03:50:22;18.00;99.90
60039;DHT22;45916;52.734;6.544;2022-08-01T03:52:50;18.00;99.90
60039;DHT22;45916;52.734;6.544;2022-08-01T03:55:18;18.00;99.90
60039;DHT22;45916;52.734;6.544;2022-08-01T03:57:45;18.00;99.90
60039;DHT22;45916;52.734;6.544;2022-08-01T04:00:12;18.00;99.90
60039;DHT22;45916;52.734;6.544;2022-08-01T04:02:38;18.00;99.90
60039;DHT22;45916;52.734;6.544;2022-08-01T04:05:04;18.00;99.90
60039;DHT22;45916;52.734;6.544;2022-08-01T04:07:32;17.90;99.90
60039;DHT22;45916;52.734;6.544;2022-08-01T04:10:01;17.90;99.90
60039;DHT22;45916;52.734;6.544;2022-08-01T04:12:27;17.90;99.90
60039;DHT22;45916;52.734;6.544;2022-08-01T04:14:52;18.00;99.90
60039;DHT22;45916;52.734;6.544;2022-08-01T04:17:18;18.00;99.90
60039;DHT22;45916;52.734;6.544;2022-08-01T04:19:44;18.00;99.90
60039;DHT22;45916;52.734;6.544;2022-08-01T04:22:11;18.00;99.90
60039;DHT22;45916;52.734;6.544;2022-08-01T04:24:39;18.00;99.90
60039;DHT22;45916;52.734;6.544;2022-08-01T04:27:08;18.00;99.90
60039;DHT22;45916;52.734;6.544;2022-08-01T04:29:36;18.00;99.90
60039;DHT22;45916;52.734;6.544;2022-08-01T04:32:03;18.00;99.90
60039;DHT22;45916;52.734;6.544;2022-08-01T04:34:31;18.00;99.90
60039;DHT22;45916;52.734;6.544;2022-08-01T04:36:57;18.00;99.90
60039;DHT22;45916;52.734;6.544;2022-08-01T04:39:26;18.00;99.90
60039;DHT22;45916;52.734;6.544;2022-08-01T04:41:54;18.00;99.90
60039;DHT22;45916;52.734;6.544;2022-08-01T04:44:24;18.10;99.90
60039;DHT22;45916;52.734;6.544;2022-08-01T04:46:50;18.10;99.90
60039;DHT22;45916;52.734;6.544;2022-08-01T04:49:20;18.10;99.90
60039;DHT22;45916;52.734;6.544;2022-08-01T04:51:53;18.10;99.90
60039;DHT22;45916;52.734;6.544;2022-08-01T04:54:30;18.20;99.90
60039;DHT22;45916;52.734;6.544;2022-08-01T04:57:00;18.20;99.90
60039;DHT22;45916;52.734;6.544;2022-08-01T04:59:26;18.20;99.90
60039;DHT22;45916;52.734;6.544;2022-08-01T05:02:14;18.30;99.90
60039;DHT22;45916;52.734;6.544;2022-08-01T05:04:41;18.30;99.90
60039;DHT22;45916;52.734;6.544;2022-08-01T05:07:08;18.40;99.90
60039;DHT22;45916;52.734;6.544;2022-08-01T05:09:34;18.40;99.90
60039;DHT22;45916;52.734;6.544;2022-08-01T05:12:02;18.40;99.90
60039;DHT22;45916;52.734;6.544;2022-08-01T05:14:29;18.50;99.90
60039;DHT22;45916;52.734;6.544;2022-08-01T05:17:02;18.50;99.90
60039;DHT22;45916;52.734;6.544;2022-08-01T05:19:39;18.50;99.90
60039;DHT22;45916;52.734;6.544;2022-08-01T05:22:07;18.60;99.90
60039;DHT22;45916;52.734;6.544;2022-08-01T05:24:35;18.60;99.90
60039;DHT22;45916;52.734;6.544;2022-08-01T05:27:01;18.60;99.90
60039;DHT22;45916;52.734;6.544;2022-08-01T05:29:28;18.60;99.90
60039;DHT22;45916;52.734;6.544;2022-08-01T05:31:54;18.60;99.90
60039;DHT22;45916;52.734;6.544;2022-08-01T05:34:20;18.60;99.90
60039;DHT22;45916;52.734;6.544;2022-08-01T05:36:46;18.60;99.90
60039;DHT22;45916;52.734;6.544;2022-08-01T05:39:13;18.60;99.90
60039;DHT22;45916;52.734;6.544;2022-08-01T05:41:39;18.50;99.90
60039;DHT22;45916;52.734;6.544;2022-08-01T05:44:05;18.50;99.90
60039;DHT22;45916;52.734;6.544;2022-08-01T05:46:32;18.40;99.90
60039;DHT22;45916;52.734;6.544;2022-08-01T05:48:58;18.40;99.90
60039;DHT22;45916;52.734;6.544;2022-08-01T05:51:25;18.40;99.90
60039;DHT22;45916;52.734;6.544;2022-08-01T05:53:51;18.40;99.90
60039;DHT22;45916;52.734;6.544;2022-08-01T05:56:17;18.40;99.90
60039;DHT22;45916;52.734;6.544;2022-08-01T05:58:43;18.40;99.90
60039;DHT22;45916;52.734;6.544;2022-08-01T06:01:09;18.50;99.90
60039;DHT22;45916;52.734;6.544;2022-08-01T06:03:35;18.50;99.90
60039;DHT22;45916;52.734;6.544;2022-08-01T06:06:02;18.70;99.90
60039;DHT22;45916;52.734;6.544;2022-08-01T06:08:28;18.80;99.90
60039;DHT22;45916;52.734;6.544;2022-08-01T06:10:54;19.10;99.90
60039;DHT22;45916;52.734;6.544;2022-08-01T06:13:20;19.30;99.90
60039;DHT22;45916;52.734;6.544;2022-08-01T06:15:46;19.50;99.90
60039;DHT22;45916;52.734;6.544;2022-08-01T06:18:12;19.60;99.90
60039;DHT22;45916;52.734;6.544;2022-08-01T06:20:38;19.70;99.90
60039;DHT22;45916;52.734;6.544;2022-08-01T06:23:04;19.70;99.90
60039;DHT22;45916;52.734;6.544;2022-08-01T06:25:30;19.70;99.90
60039;DHT22;45916;52.734;6.544;2022-08-01T06:27:55;19.70;99.90
60039;DHT22;45916;52.734;6.544;2022-08-01T06:30:21;19.70;99.90
60039;DHT22;45916;52.734;6.544;2022-08-01T06:32:47;19.80;99.90
60039;DHT22;45916;52.734;6.544;2022-08-01T06:35:14;19.80;99.90
60039;DHT22;45916;52.734;6.544;2022-08-01T06:37:39;19.90;99.90
60039;DHT22;45916;52.734;6.544;2022-08-01T06:40:07;20.00;99.90
60039;DHT22;45916;52.734;6.544;2022-08-01T06:42:34;20.00;99.90
60039;DHT22;45916;52.734;6.544;2022-08-01T06:45:09;20.10;99.90
60039;DHT22;45916;52.734;6.544;2022-08-01T06:47:37;20.20;99.90
60039;DHT22;45916;52.734;6.544;2022-08-01T06:50:05;20.30;99.90
60039;DHT22;45916;52.734;6.544;2022-08-01T06:52:31;20.40;99.90
60039;DHT22;45916;52.734;6.544;2022-08-01T06:54:56;20.40;99.90
60039;DHT22;45916;52.734;6.544;2022-08-01T06:57:22;20.40;99.90
60039;DHT22;45916;52.734;6.544;2022-08-01T06:59:48;20.40;99.90
60039;DHT22;45916;52.734;6.544;2022-08-01T07:02:14;20.30;99.90
60039;DHT22;45916;52.734;6.544;2022-08-01T07:04:40;20.20;99.90
60039;DHT22;45916;52.734;6.544;2022-08-01T07:07:06;20.20;99.90
60039;DHT22;45916;52.734;6.544;2022-08-01T07:09:31;20.20;99.90
60039;DHT22;45916;52.734;6.544;2022-08-01T07:11:57;20.10;99.90
60039;DHT22;45916;52.734;6.544;2022-08-01T07:14:23;20.10;99.90
60039;DHT22;45916;52.734;6.544;2022-08-01T07:16:49;20.20;99.90
60039;DHT22;45916;52.734;6.544;2022-08-01T07:19:16;20.30;99.90
60039;DHT22;45916;52.734;6.544;2022-08-01T07:21:41;20.50;99.90
60039;DHT22;45916;52.734;6.544;2022-08-01T07:24:09;20.80;99.90
60039;DHT22;45916;52.734;6.544;2022-08-01T07:26:35;21.10;99.90
60039;DHT22;45916;52.734;6.544;2022-08-01T07:29:01;21.50;99.90
60039;DHT22;45916;52.734;6.544;2022-08-01T07:31:28;22.00;99.90
60039;DHT22;45916;52.734;6.544;2022-08-01T07:33:54;22.40;99.90
60039;DHT22;45916;52.734;6.544;2022-08-01T07:36:19;22.60;99.90
60039;DHT22;45916;52.734;6.544;2022-08-01T07:38:45;22.70;99.90
60039;DHT22;45916;52.734;6.544;2022-08-01T07:41:11;22.70;99.90
60039;DHT22;45916;52.734;6.544;2022-08-01T07:43:38;22.70;99.90
60039;DHT22;45916;52.734;6.544;2022-08-01T07:46:04;22.70;99.90
60039;DHT22;45916;52.734;6.544;2022-08-01T07:48:30;22.80;99.90
60039;DHT22;45916;52.734;6.544;2022-08-01T07:50:56;23.20;99.90
60039;DHT22;45916;52.734;6.544;2022-08-01T07:53:22;23.70;99.90
60039;DHT22;45916;52.734;6.544;2022-08-01T07:55:47;24.20;99.90
60039;DHT22;45916;52.734;6.544;2022-08-01T07:58:14;24.70;99.90
60039;DHT22;45916;52.734;6.544;2022-08-01T08:00:39;25.20;99.90
60039;DHT22;45916;52.734;6.544;2022-08-01T08:03:05;25.60;98.60
60039;DHT22;45916;52.734;6.544;2022-08-01T08:05:32;25.60;98.10
60039;DHT22;45916;52.734;6.544;2022-08-01T08:08:02;25.90;97.00
60039;DHT22;45916;52.734;6.544;2022-08-01T08:10:29;26.40;95.00
60039;DHT22;45916;52.734;6.544;2022-08-01T08:12:55;26.70;93.10
60039;DHT22;45916;52.734;6.544;2022-08-01T08:15:21;27.10;91.60
60039;DHT22;45916;52.734;6.544;2022-08-01T08:17:46;27.50;90.40
60039;DHT22;45916;52.734;6.544;2022-08-01T08:20:12;27.60;90.10
60039;DHT22;45916;52.734;6.544;2022-08-01T08:22:38;27.80;83.70
60039;DHT22;45916;52.734;6.544;2022-08-01T08:25:04;27.60;83.10
60039;DHT22;45916;52.734;6.544;2022-08-01T08:27:30;28.00;87.30
60039;DHT22;45916;52.734;6.544;2022-08-01T08:29:56;28.60;89.50
60039;DHT22;45916;52.734;6.544;2022-08-01T08:32:22;30.20;82.70
60039;DHT22;45916;52.734;6.544;2022-08-01T08:34:47;32.10;68.10
60039;DHT22;45916;52.734;6.544;2022-08-01T08:37:13;33.50;60.30
60039;DHT22;45916;52.734;6.544;2022-08-01T08:39:39;34.50;57.90
60039;DHT22;45916;52.734;6.544;2022-08-01T08:42:09;36.20;55.40
60039;DHT22;45916;52.734;6.544;2022-08-01T08:44:35;37.30;48.80
60039;DHT22;45916;52.734;6.544;2022-08-01T08:47:02;37.30;46.20
60039;DHT22;45916;52.734;6.544;2022-08-01T08:49:31;36.80;46.50
60039;DHT22;45916;52.734;6.544;2022-08-01T08:52:01;36.30;46.70
60039;DHT22;45916;52.734;6.544;2022-08-01T08:54:29;35.50;47.00
60039;DHT22;45916;52.734;6.544;2022-08-01T08:56:56;34.60;47.70
60039;DHT22;45916;52.734;6.544;2022-08-01T08:59:22;33.70;50.00
60039;DHT22;45916;52.734;6.544;2022-08-01T09:01:52;33.20;51.10
60039;DHT22;45916;52.734;6.544;2022-08-01T09:04:18;33.00;50.90
60039;DHT22;45916;52.734;6.544;2022-08-01T09:06:46;32.60;51.20
60039;DHT22;45916;52.734;6.544;2022-08-01T09:09:12;32.50;52.60
60039;DHT22;45916;52.734;6.544;2022-08-01T09:11:37;32.70;51.50
60039;DHT22;45916;52.734;6.544;2022-08-01T09:16:31;32.60;51.50
60039;DHT22;45916;52.734;6.544;2022-08-01T09:19:27;32.70;51.90
60039;DHT22;45916;52.734;6.544;2022-08-01T09:22:06;32.40;51.00
60039;DHT22;45916;52.734;6.544;2022-08-01T09:24:33;32.10;51.00
60039;DHT22;45916;52.734;6.544;2022-08-01T09:26:59;31.90;51.30
60039;DHT22;45916;52.734;6.544;2022-08-01T09:29:29;31.60;51.00
60039;DHT22;45916;52.734;6.544;2022-08-01T09:31:55;31.30;51.80
60039;DHT22;45916;52.734;6.544;2022-08-01T09:34:31;31.20;52.00
60039;DHT22;45916;52.734;6.544;2022-08-01T09:36:59;31.30;51.80
60039;DHT22;45916;52.734;6.544;2022-08-01T09:39:28;32.40;53.00
60039;DHT22;45916;52.734;6.544;2022-08-01T09:41:55;34.10;51.20
60039;DHT22;45916;52.734;6.544;2022-08-01T09:47:02;37.00;45.90
60039;DHT22;45916;52.734;6.544;2022-08-01T09:49:33;37.70;43.40
60039;DHT22;45916;52.734;6.544;2022-08-01T09:52:21;38.10;40.70
60039;DHT22;45916;52.734;6.544;2022-08-01T09:54:59;38.20;41.60
60039;DHT22;45916;52.734;6.544;2022-08-01T09:57:25;38.40;40.40
60039;DHT22;45916;52.734;6.544;2022-08-01T09:59:57;38.70;41.10
60039;DHT22;45916;52.734;6.544;2022-08-01T10:02:41;38.70;39.60
60039;DHT22;45916;52.734;6.544;2022-08-01T10:05:09;38.60;39.60
60039;DHT22;45916;52.734;6.544;2022-08-01T10:08:00;38.70;40.10
60039;DHT22;45916;52.734;6.544;2022-08-01T10:10:27;38.90;40.40
60039;DHT22;45916;52.734;6.544;2022-08-01T10:12:55;38.30;37.90
60039;DHT22;45916;52.734;6.544;2022-08-01T10:15:22;38.30;38.30
60039;DHT22;45916;52.734;6.544;2022-08-01T10:17:55;38.60;39.60
60039;DHT22;45916;52.734;6.544;2022-08-01T10:20:25;38.60;39.00
60039;DHT22;45916;52.734;6.544;2022-08-01T10:22:53;37.40;38.00
60039;DHT22;45916;52.734;6.544;2022-08-01T10:25:21;36.80;40.30
60039;DHT22;45916;52.734;6.544;2022-08-01T10:27:52;36.80;40.70
60039;DHT22;45916;52.734;6.544;2022-08-01T10:30:21;36.80;40.70
60039;DHT22;45916;52.734;6.544;2022-08-01T10:32:47;37.20;41.60
60039;DHT22;45916;52.734;6.544;2022-08-01T10:35:13;37.90;40.20
60039;DHT22;45916;52.734;6.544;2022-08-01T10:37:44;38.40;39.10
60039;DHT22;45916;52.734;6.544;2022-08-01T10:40:15;38.00;37.80
60039;DHT22;45916;52.734;6.544;2022-08-01T10:42:45;37.40;39.60
60039;DHT22;45916;52.734;6.544;2022-08-01T10:45:14;36.90;41.10
60039;DHT22;45916;52.734;6.544;2022-08-01T10:47:41;36.90;41.80
60039;DHT22;45916;52.734;6.544;2022-08-01T10:50:15;36.90;40.80
60039;DHT22;45916;52.734;6.544;2022-08-01T10:56:05;37.20;39.10
60039;DHT22;45916;52.734;6.544;2022-08-01T10:58:35;36.40;40.40
60039;DHT22;45916;52.734;6.544;2022-08-01T11:01:23;35.80;40.00
60039;DHT22;45916;52.734;6.544;2022-08-01T11:06:54;35.30;
60039;DHT22;45916;52.734;6.544;2022-08-01T11:09:31;34.50;40.50
60039;DHT22;45916;52.734;6.544;2022-08-01T11:12:12;34.00;43.00
60039;DHT22;45916;52.734;6.544;2022-08-01T11:17:32;33.90;44.30
60039;DHT22;45916;52.734;6.544;2022-08-01T11:26:11;32.80;45.00
60039;DHT22;45916;52.734;6.544;2022-08-01T11:28:22;32.70;44.80
60039;DHT22;45916;52.734;6.544;2022-08-01T11:38:38;31.20;48.30
60039;DHT22;45916;52.734;6.544;2022-08-01T11:52:04;30.70;48.30
60039;DHT22;45916;52.734;6.544;2022-08-01T11:54:37;30.70;47.30
60039;DHT22;45916;52.734;6.544;2022-08-01T11:57:11;30.50;47.80
60039;DHT22;45916;52.734;6.544;2022-08-01T11:59:48;30.30;48.80
60039;DHT22;45916;52.734;6.544;2022-08-01T12:02:28;30.30;48.60
60039;DHT22;45916;52.734;6.544;2022-08-01T12:04:56;30.10;49.10
60039;DHT22;45916;52.734;6.544;2022-08-01T12:07:24;30.00;48.90
60039;DHT22;45916;52.734;6.544;2022-08-01T12:09:57;29.90;48.70
60039;DHT22;45916;52.734;6.544;2022-08-01T12:12:23;29.90;48.90
60039;DHT22;45916;52.734;6.544;2022-08-01T12:14:54;29.70;48.80
60039;DHT22;45916;52.734;6.544;2022-08-01T12:17:43;29.50;50.50
60039;DHT22;45916;52.734;6.544;2022-08-01T12:20:12;29.30;50.60
60039;DHT22;45916;52.734;6.544;2022-08-01T12:22:38;29.10;49.40
60039;DHT22;45916;52.734;6.544;2022-08-01T12:25:09;29.00;51.30
60039;DHT22;45916;52.734;6.544;2022-08-01T12:27:36;28.90;51.10
60039;DHT22;45916;52.734;6.544;2022-08-01T12:30:05;28.80;50.30
60039;DHT22;45916;52.734;6.544;2022-08-01T12:32:34;28.80;51.20
60039;DHT22;45916;52.734;6.544;2022-08-01T12:35:16;28.80;51.80
60039;DHT22;45916;52.734;6.544;2022-08-01T12:37:47;28.70;52.10
60039;DHT22;45916;52.734;6.544;2022-08-01T12:40:27;28.80;50.90
60039;DHT22;45916;52.734;6.544;2022-08-01T12:43:05;28.90;51.10
60039;DHT22;45916;52.734;6.544;2022-08-01T12:45:38;28.80;49.30
60039;DHT22;45916;52.734;6.544;2022-08-01T12:48:15;28.80;51.00
60039;DHT22;45916;52.734;6.544;2022-08-01T12:50:48;28.80;50.20
60039;DHT22;45916;52.734;6.544;2022-08-01T12:53:15;28.80;50.60
60039;DHT22;45916;52.734;6.544;2022-08-01T12:55:59;28.80;50.00
60039;DHT22;45916;52.734;6.544;2022-08-01T12:58:34;28.80;49.90
60039;DHT22;45916;52.734;6.544;2022-08-01T13:01:08;28.60;50.50
60039;DHT22;45916;52.734;6.544;2022-08-01T13:03:34;28.40;51.30
60039;DHT22;45916;52.734;6.544;2022-08-01T13:06:01;28.30;51.90
60039;DHT22;45916;52.734;6.544;2022-08-01T13:08:32;28.40;50.20
60039;DHT22;45916;52.734;6.544;2022-08-01T13:11:06;28.50;49.00
60039;DHT22;45916;52.734;6.544;2022-08-01T13:13:45;28.80;50.20
60039;DHT22;45916;52.734;6.544;2022-08-01T13:16:21;28.90;49.70
60039;DHT22;45916;52.734;6.544;2022-08-01T13:18:52;28.90;50.40
60039;DHT22;45916;52.734;6.544;2022-08-01T13:21:20;28.60;51.70
60039;DHT22;45916;52.734;6.544;2022-08-01T13:24:05;28.30;51.40
60039;DHT22;45916;52.734;6.544;2022-08-01T13:26:49;28.10;52.60
60039;DHT22;45916;52.734;6.544;2022-08-01T13:29:35;27.90;52.30
60039;DHT22;45916;52.734;6.544;2022-08-01T13:32:17;27.70;51.90
60039;DHT22;45916;52.734;6.544;2022-08-01T13:34:43;27.50;54.10
60039;DHT22;45916;52.734;6.544;2022-08-01T13:37:09;27.60;53.70
60039;DHT22;45916;52.734;6.544;2022-08-01T13:39:34;27.70;53.40
60039;DHT22;45916;52.734;6.544;2022-08-01T13:42:07;27.90;53.70
60039;DHT22;45916;52.734;6.544;2022-08-01T13:44:33;28.00;53.20
60039;DHT22;45916;52.734;6.544;2022-08-01T13:46:59;28.00;52.20
60039;DHT22;45916;52.734;6.544;2022-08-01T13:49:24;27.90;52.40
60039;DHT22;45916;52.734;6.544;2022-08-01T13:51:50;27.70;52.30
60039;DHT22;45916;52.734;6.544;2022-08-01T13:54:16;27.30;52.60
60039;DHT22;45916;52.734;6.544;2022-08-01T13:56:42;27.10;53.50
60039;DHT22;45916;52.734;6.544;2022-08-01T13:59:08;26.90;53.30
60039;DHT22;45916;52.734;6.544;2022-08-01T14:01:34;26.90;54.00
60039;DHT22;45916;52.734;6.544;2022-08-01T14:03:59;27.00;53.30
60039;DHT22;45916;52.734;6.544;2022-08-01T14:06:25;27.10;52.60
60039;DHT22;45916;52.734;6.544;2022-08-01T14:08:51;27.10;53.10
60039;DHT22;45916;52.734;6.544;2022-08-01T14:11:17;27.00;53.60
60039;DHT22;45916;52.734;6.544;2022-08-01T14:13:43;26.70;53.40
60039;DHT22;45916;52.734;6.544;2022-08-01T14:16:09;26.50;54.10
60039;DHT22;45916;52.734;6.544;2022-08-01T14:18:34;26.40;54.70
60039;DHT22;45916;52.734;6.544;2022-08-01T14:21:00;26.40;55.70
60039;DHT22;45916;52.734;6.544;2022-08-01T14:23:26;26.50;55.70
60039;DHT22;45916;52.734;6.544;2022-08-01T14:25:52;26.60;53.20
60039;DHT22;45916;52.734;6.544;2022-08-01T14:28:18;26.60;54.30
60039;DHT22;45916;52.734;6.544;2022-08-01T14:30:44;26.60;53.80
60039;DHT22;45916;52.734;6.544;2022-08-01T14:33:11;26.60;53.90
60039;DHT22;45916;52.734;6.544;2022-08-01T14:35:37;26.60;53.80
60039;DHT22;45916;52.734;6.544;2022-08-01T14:38:03;26.40;53.80
60039;DHT22;45916;52.734;6.544;2022-08-01T14:40:29;26.20;52.60
60039;DHT22;45916;52.734;6.544;2022-08-01T14:42:54;25.90;53.50
60039;DHT22;45916;52.734;6.544;2022-08-01T14:45:20;25.60;54.30
60039;DHT22;45916;52.734;6.544;2022-08-01T14:47:46;25.30;53.90
60039;DHT22;45916;52.734;6.544;2022-08-01T14:50:13;25.10;54.60
60039;DHT22;45916;52.734;6.544;2022-08-01T14:52:40;25.00;55.30
60039;DHT22;45916;52.734;6.544;2022-08-01T14:55:07;24.80;54.90
60039;DHT22;45916;52.734;6.544;2022-08-01T14:57:33;24.70;55.30
60039;DHT22;45916;52.734;6.544;2022-08-01T14:59:59;24.70;56.80
60039;DHT22;45916;52.734;6.544;2022-08-01T15:02:25;24.70;57.20
60039;DHT22;45916;52.734;6.544;2022-08-01T15:04:50;24.80;60.40
60039;DHT22;45916;52.734;6.544;2022-08-01T15:07:17;24.90;57.10
60039;DHT22;45916;52.734;6.544;2022-08-01T15:09:43;24.80;56.50
60039;DHT22;45916;52.734;6.544;2022-08-01T15:12:10;24.70;58.90
60039;DHT22;45916;52.734;6.544;2022-08-01T15:14:37;24.70;59.60
60039;DHT22;45916;52.734;6.544;2022-08-01T15:17:20;24.60;60.70
60039;DHT22;45916;52.734;6.544;2022-08-01T15:19:48;24.50;63.00
60039;DHT22;45916;52.734;6.544;2022-08-01T15:22:14;24.50;65.50
60039;DHT22;45916;52.734;6.544;2022-08-01T15:24:40;24.40;67.80
60039;DHT22;45916;52.734;6.544;2022-08-01T15:27:07;24.30;66.70
60039;DHT22;45916;52.734;6.544;2022-08-01T15:29:33;24.40;67.00
60039;DHT22;45916;52.734;6.544;2022-08-01T15:32:00;24.30;60.60
60039;DHT22;45916;52.734;6.544;2022-08-01T15:34:26;24.40;61.80
60039;DHT22;45916;52.734;6.544;2022-08-01T15:36:52;24.50;64.30
60039;DHT22;45916;52.734;6.544;2022-08-01T15:39:17;24.50;67.80
60039;DHT22;45916;52.734;6.544;2022-08-01T15:41:43;24.70;71.10
60039;DHT22;45916;52.734;6.544;2022-08-01T15:44:09;24.70;64.10
60039;DHT22;45916;52.734;6.544;2022-08-01T15:46:35;24.60;59.70
60039;DHT22;45916;52.734;6.544;2022-08-01T15:49:05;24.60;57.50
60039;DHT22;45916;52.734;6.544;2022-08-01T15:51:31;24.60;60.00
60039;DHT22;45916;52.734;6.544;2022-08-01T15:53:57;24.60;63.30
60039;DHT22;45916;52.734;6.544;2022-08-01T15:56:23;24.50;66.20
60039;DHT22;45916;52.734;6.544;2022-08-01T15:58:50;24.30;67.40
60039;DHT22;45916;52.734;6.544;2022-08-01T16:01:15;24.10;70.20
60039;DHT22;45916;52.734;6.544;2022-08-01T16:03:41;24.00;70.40
60039;DHT22;45916;52.734;6.544;2022-08-01T16:06:07;23.80;70.50
60039;DHT22;45916;52.734;6.544;2022-08-01T16:08:33;23.60;73.60
60039;DHT22;45916;52.734;6.544;2022-08-01T16:10:59;23.50;73.50
60039;DHT22;45916;52.734;6.544;2022-08-01T16:13:24;23.30;74.40
60039;DHT22;45916;52.734;6.544;2022-08-01T16:15:50;23.20;76.60
60039;DHT22;45916;52.734;6.544;2022-08-01T16:18:16;23.00;76.50
60039;DHT22;45916;52.734;6.544;2022-08-01T16:20:42;22.90;79.80
60039;DHT22;45916;52.734;6.544;2022-08-01T16:23:08;22.80;81.80
60039;DHT22;45916;52.734;6.544;2022-08-01T16:25:34;22.70;80.50